createdAt,value
2019-01-31T00:00:13.353Z,87.68
2019-01-31T00:03:28.061Z,87.58
2019-01-31T00:06:10.554Z,87.33
2019-01-31T00:08:47.570Z,87.33
2019-01-31T00:12:05.114Z,87.24
2019-01-31T00:14:48.163Z,87.18
2019-01-31T00:17:35.230Z,87.06
2019-01-31T00:20:33.026Z,86.29
2019-01-31T00:23:34.158Z,86.47
2019-01-31T00:26:44.408Z,86.60
2019-01-31T00:29:54.750Z,86.31
2019-01-31T00:32:56.995Z,85.95
2019-01-31T00:36:06.123Z,85.69
2019-01-31T00:39:24.180Z,85.75
2019-01-31T00:42:12.058Z,85.68
2019-01-31T00:45:02.267Z,85.79
2019-01-31T00:48:05.225Z,86.06
2019-01-31T00:50:52.796Z,85.95
2019-01-31T00:53:49.558Z,86.31
2019-01-31T00:56:43.305Z,86.29
2019-01-31T00:59:25.363Z,86.49
2019-01-31T01:02:33.199Z,86.66
2019-01-31T01:05:39.164Z,86.92
2019-01-31T01:08:33.952Z,87.16
2019-01-31T01:11:41.345Z,87.09
2019-01-31T01:14:46.901Z,86.97
2019-01-31T01:17:28.779Z,86.74
2019-01-31T01:20:15.275Z,86.84
2019-01-31T01:22:56.576Z,86.92
2019-01-31T01:26:12.597Z,86.68
2019-01-31T01:29:05.341Z,86.38
2019-01-31T01:32:12.475Z,86.32
2019-01-31T01:35:37.600Z,86.15
2019-01-31T01:39:01.493Z,86.11
2019-01-31T01:41:55.151Z,86.22
2019-01-31T01:44:58.796Z,86.08
2019-01-31T01:47:37.789Z,86.30
2019-01-31T01:50:22.753Z,86.40
2019-01-31T01:53:18.839Z,86.71
2019-01-31T01:56:36.080Z,86.83
2019-01-31T01:59:41.675Z,87.07
2019-01-31T02:02:39.430Z,87.24
2019-01-31T02:05:35.189Z,86.96
2019-01-31T02:09:01.723Z,87.15
2019-01-31T02:12:04.755Z,87.35
2019-01-31T02:15:22.325Z,87.23
2019-01-31T02:18:13.271Z,87.36
2019-01-31T02:21:29.699Z,87.24
2019-01-31T02:24:39.702Z,86.95
2019-01-31T02:27:36.259Z,86.82
2019-01-31T02:30:21.791Z,87.08
2019-01-31T02:33:10.167Z,87.11
2019-01-31T02:36:05.119Z,87.14
2019-01-31T02:39:10.454Z,87.37
2019-01-31T02:42:13.022Z,87.23
2019-01-31T02:45:19.914Z,86.90
2019-01-31T02:48:26.313Z,87.19
2019-01-31T02:51:34.515Z,87.10
2019-01-31T02:54:31.714Z,86.85
2019-01-31T02:57:45.012Z,86.76
2019-01-31T03:00:41.977Z,86.61
2019-01-31T03:03:31.260Z,86.51
2019-01-31T03:07:15.493Z,86.69
2019-01-31T03:09:54.941Z,86.65
2019-01-31T03:13:02.324Z,86.28
2019-01-31T03:15:54.060Z,86.19
2019-01-31T03:18:49.782Z,86.50
2019-01-31T03:21:43.792Z,86.78
2019-01-31T03:25:10.102Z,86.54
2019-01-31T03:28:12.364Z,86.22
2019-01-31T03:31:17.538Z,86.24
2019-01-31T03:34:27.652Z,85.98
2019-01-31T03:37:17.129Z,85.58
2019-01-31T03:40:18.730Z,85.16
2019-01-31T03:43:34.495Z,84.93
2019-01-31T03:46:40.734Z,84.90
2019-01-31T03:49:54.111Z,84.74
2019-01-31T03:53:00.536Z,84.81
2019-01-31T03:56:15.746Z,84.94
2019-01-31T03:59:13.245Z,85.23
2019-01-31T04:02:18.875Z,85.45
2019-01-31T04:05:28.499Z,85.01
2019-01-31T04:07:58.456Z,84.82
2019-01-31T04:10:28.999Z,84.90
2019-01-31T04:12:59.001Z,84.80
2019-01-31T04:15:29.133Z,84.83
2019-01-31T04:18:00.938Z,84.86
2019-01-31T04:20:30.914Z,85.06
2019-01-31T04:23:01.193Z,85.12
2019-01-31T04:25:31.089Z,85.04
2019-01-31T04:28:01.293Z,85.07
2019-01-31T04:30:31.315Z,85.17
2019-01-31T04:33:01.608Z,85.22
2019-01-31T04:35:31.667Z,85.28
2019-01-31T04:38:01.558Z,85.30
2019-01-31T04:40:31.845Z,85.37
2019-01-31T04:43:01.769Z,85.37
2019-01-31T04:45:31.723Z,85.34
2019-01-31T04:48:01.705Z,85.35
2019-01-31T04:50:31.783Z,85.35
2019-01-31T04:53:01.772Z,85.81
2019-01-31T04:55:31.773Z,85.80
2019-01-31T04:58:01.644Z,85.63
2019-01-31T05:00:32.282Z,85.57
2019-01-31T05:03:08.229Z,85.88
2019-01-31T05:05:39.109Z,85.77
2019-01-31T05:08:10.102Z,85.49
2019-01-31T05:10:43.216Z,85.29
2019-01-31T05:13:11.730Z,85.19
2019-01-31T05:15:41.651Z,85.13
2019-01-31T05:18:11.758Z,85.26
2019-01-31T05:20:42.058Z,85.34
2019-01-31T05:23:11.836Z,85.12
2019-01-31T05:25:42.118Z,84.98
2019-01-31T05:28:12.079Z,85.03
2019-01-31T05:30:42.056Z,84.89
2019-01-31T05:33:12.017Z,84.83
2019-01-31T05:35:42.435Z,85.07
2019-01-31T05:38:12.562Z,85.09
2019-01-31T05:40:54.877Z,85.18
2019-01-31T05:43:14.105Z,85.30
2019-01-31T05:45:44.075Z,85.13
2019-01-31T05:48:13.972Z,85.11
2019-01-31T05:50:43.910Z,85.07
2019-01-31T05:53:13.976Z,85.37
2019-01-31T05:55:43.923Z,85.55
2019-01-31T05:58:14.199Z,85.70
2019-01-31T06:00:44.157Z,85.74
2019-01-31T06:03:14.026Z,85.71
2019-01-31T06:05:45.168Z,85.51
2019-01-31T06:08:15.070Z,85.56
2019-01-31T06:10:44.961Z,85.37
2019-01-31T06:13:14.828Z,85.20
2019-01-31T06:15:45.078Z,85.06
2019-01-31T06:18:15.079Z,85.10
2019-01-31T06:20:45.088Z,85.18
2019-01-31T06:23:14.959Z,85.29
2019-01-31T06:25:45.117Z,85.39
2019-01-31T06:28:15.860Z,85.52
2019-01-31T06:30:45.820Z,85.57
2019-01-31T06:33:15.756Z,85.65
2019-01-31T06:35:45.703Z,85.56
2019-01-31T06:38:16.126Z,85.38
2019-01-31T06:40:46.061Z,85.36
2019-01-31T06:43:16.235Z,85.25
2019-01-31T06:45:46.508Z,85.45
2019-01-31T06:48:16.496Z,85.38
2019-01-31T06:50:46.454Z,85.23
2019-01-31T06:53:16.418Z,85.20
2019-01-31T06:55:46.373Z,85.36
2019-01-31T06:58:16.370Z,85.39
2019-01-31T07:00:46.482Z,85.57
2019-01-31T07:03:16.685Z,85.58
2019-01-31T07:05:46.692Z,85.59
2019-01-31T07:08:16.588Z,85.60
2019-01-31T07:10:46.642Z,85.52
2019-01-31T07:13:16.577Z,85.74
2019-01-31T07:15:46.534Z,85.89
2019-01-31T07:18:16.513Z,86.13
2019-01-31T07:20:46.774Z,86.25
2019-01-31T07:23:17.019Z,86.12
2019-01-31T07:25:47.304Z,86.17
2019-01-31T07:28:21.329Z,86.03
2019-01-31T07:30:51.351Z,85.89
2019-01-31T07:33:21.151Z,86.17
2019-01-31T07:35:52.348Z,86.41
2019-01-31T07:38:22.353Z,86.56
2019-01-31T07:40:52.322Z,86.49
2019-01-31T07:43:22.179Z,86.59
2019-01-31T07:45:52.216Z,86.76
2019-01-31T07:48:22.432Z,86.89
2019-01-31T07:50:52.385Z,86.88
2019-01-31T07:53:23.236Z,87.09
2019-01-31T07:55:53.213Z,87.15
2019-01-31T07:58:23.092Z,87.18
2019-01-31T08:00:53.175Z,87.26
2019-01-31T08:03:23.193Z,87.37
2019-01-31T08:05:53.590Z,87.45
2019-01-31T08:08:23.561Z,87.48
2019-01-31T08:10:53.559Z,87.38
2019-01-31T08:13:23.525Z,87.28
2019-01-31T08:15:53.473Z,87.32
2019-01-31T08:18:23.598Z,87.34
2019-01-31T08:20:53.667Z,87.42
2019-01-31T08:23:23.648Z,87.51
2019-01-31T08:25:53.615Z,87.66
2019-01-31T08:28:23.637Z,87.75
2019-01-31T08:30:53.743Z,87.72
2019-01-31T08:33:23.769Z,87.73
2019-01-31T08:35:54.123Z,87.79
2019-01-31T08:38:24.307Z,87.77
2019-01-31T08:40:55.511Z,87.86
2019-01-31T08:43:25.412Z,87.83
2019-01-31T08:45:55.419Z,87.81
2019-01-31T08:48:25.432Z,87.87
2019-01-31T08:50:55.375Z,87.89
2019-01-31T08:53:25.614Z,87.97
2019-01-31T08:55:55.551Z,88.13
2019-01-31T08:58:25.469Z,88.13
2019-01-31T09:00:55.783Z,88.18
2019-01-31T09:03:25.708Z,88.24
2019-01-31T09:05:55.700Z,88.29
2019-01-31T09:08:25.670Z,88.28
2019-01-31T09:10:55.599Z,88.27
2019-01-31T09:13:27.976Z,88.28
2019-01-31T09:15:58.015Z,88.22
2019-01-31T09:18:27.940Z,88.25
2019-01-31T09:21:22.643Z,88.31
2019-01-31T09:24:35.891Z,88.28
2019-01-31T09:27:40.428Z,88.22
2019-01-31T09:30:23.551Z,87.95
2019-01-31T09:34:02.130Z,87.84
2019-01-31T09:37:12.924Z,87.74
2019-01-31T09:39:59.785Z,87.81
2019-01-31T09:43:11.066Z,87.95
2019-01-31T09:46:25.086Z,88.09
2019-01-31T09:49:19.786Z,88.07
2019-01-31T09:52:19.478Z,88.00
2019-01-31T09:55:22.857Z,88.00
2019-01-31T09:58:27.793Z,88.12
2019-01-31T10:01:27.162Z,88.19
2019-01-31T10:04:26.118Z,88.15
2019-01-31T10:07:21.742Z,88.02
2019-01-31T10:10:26.845Z,87.99
2019-01-31T10:13:18.584Z,87.95
2019-01-31T10:16:27.578Z,87.89
2019-01-31T10:19:47.559Z,87.79
2019-01-31T10:23:07.810Z,87.72
2019-01-31T10:26:10.273Z,87.48
2019-01-31T10:29:36.253Z,87.38
2019-01-31T10:32:28.125Z,87.49
2019-01-31T10:35:39.333Z,87.44
2019-01-31T10:38:35.994Z,87.40
2019-01-31T10:41:39.601Z,87.38
2019-01-31T10:44:26.918Z,87.34
2019-01-31T10:47:20.920Z,87.21
2019-01-31T10:50:05.563Z,87.31
2019-01-31T10:53:14.710Z,87.29
2019-01-31T10:56:44.219Z,87.22
2019-01-31T10:59:41.825Z,87.25
2019-01-31T11:02:52.517Z,87.09
2019-01-31T11:06:01.173Z,87.31
2019-01-31T11:09:15.814Z,87.42
2019-01-31T11:12:31.314Z,87.40
2019-01-31T11:15:54.337Z,87.56
2019-01-31T11:18:49.597Z,87.35
2019-01-31T11:21:55.493Z,87.30
2019-01-31T11:24:45.827Z,87.30
2019-01-31T11:27:54.145Z,86.99
2019-01-31T11:30:52.832Z,87.08
2019-01-31T11:33:49.973Z,87.07
2019-01-31T11:36:56.183Z,87.17
2019-01-31T11:40:18.629Z,87.12
2019-01-31T11:43:32.769Z,86.98
2019-01-31T11:46:38.296Z,86.85
2019-01-31T11:49:42.533Z,86.81
2019-01-31T11:52:57.264Z,86.92
2019-01-31T11:55:39.352Z,87.01
2019-01-31T11:58:59.858Z,87.04
2019-01-31T12:01:29.980Z,87.16
2019-01-31T12:04:09.140Z,86.88
2019-01-31T12:06:39.115Z,86.76
2019-01-31T12:09:12.543Z,86.79
2019-01-31T12:11:42.524Z,86.79
2019-01-31T12:14:12.461Z,86.91
2019-01-31T12:16:42.522Z,86.91
2019-01-31T12:19:13.300Z,86.94
2019-01-31T12:21:44.638Z,86.97
2019-01-31T12:24:16.640Z,86.99
2019-01-31T12:26:46.729Z,86.93
2019-01-31T12:29:16.689Z,86.83
2019-01-31T12:31:46.677Z,86.71
2019-01-31T12:34:16.802Z,86.60
2019-01-31T12:36:46.678Z,86.48
2019-01-31T12:39:16.622Z,86.57
2019-01-31T12:41:46.546Z,86.55
2019-01-31T12:44:16.468Z,86.45
2019-01-31T12:46:46.381Z,86.39
2019-01-31T12:49:16.313Z,86.41
2019-01-31T12:51:46.243Z,86.54
2019-01-31T12:54:16.171Z,86.53
2019-01-31T12:56:46.129Z,86.46
2019-01-31T12:59:15.975Z,86.60
2019-01-31T13:01:45.908Z,86.69
2019-01-31T13:04:16.144Z,86.63
2019-01-31T13:06:46.070Z,86.58
2019-01-31T13:09:16.003Z,86.54
2019-01-31T13:11:46.072Z,86.35
2019-01-31T13:14:15.991Z,86.10
2019-01-31T13:16:45.952Z,86.18
2019-01-31T13:19:15.867Z,86.21
2019-01-31T13:21:45.890Z,86.01
2019-01-31T13:24:15.852Z,85.87
2019-01-31T13:26:45.855Z,85.81
2019-01-31T13:29:15.871Z,86.00
2019-01-31T13:31:45.741Z,85.96
2019-01-31T13:34:15.667Z,85.89
2019-01-31T13:36:45.948Z,85.86
2019-01-31T13:39:17.297Z,85.86
2019-01-31T13:41:47.245Z,85.75
2019-01-31T13:44:18.554Z,85.77
2019-01-31T13:46:48.482Z,85.82
2019-01-31T13:49:18.346Z,85.77
2019-01-31T13:51:48.284Z,85.65
2019-01-31T13:54:18.219Z,85.55
2019-01-31T13:56:48.422Z,85.58
2019-01-31T13:59:18.360Z,85.82
2019-01-31T14:01:48.167Z,85.99
2019-01-31T14:04:18.100Z,86.01
2019-01-31T14:06:48.376Z,85.98
2019-01-31T14:09:18.307Z,85.99
2019-01-31T14:11:48.223Z,86.34
2019-01-31T14:14:18.503Z,86.26
2019-01-31T14:16:48.667Z,86.09
2019-01-31T14:19:18.546Z,86.00
2019-01-31T14:21:48.477Z,86.02
2019-01-31T14:24:18.419Z,86.16
2019-01-31T14:26:48.360Z,86.17
2019-01-31T14:29:18.227Z,86.03
2019-01-31T14:31:48.081Z,85.97
2019-01-31T14:34:18.018Z,85.99
2019-01-31T14:36:47.951Z,86.01
2019-01-31T14:39:17.900Z,86.00
2019-01-31T14:41:47.835Z,86.04
2019-01-31T14:44:20.743Z,86.23
2019-01-31T14:47:08.449Z,86.41
2019-01-31T14:49:38.452Z,86.55
2019-01-31T14:52:08.512Z,86.46
2019-01-31T14:54:38.366Z,86.40
2019-01-31T14:57:08.499Z,86.44
2019-01-31T14:59:38.388Z,86.46
2019-01-31T15:02:08.310Z,86.39
2019-01-31T15:04:38.209Z,86.34
2019-01-31T15:07:07.983Z,86.34
2019-01-31T15:09:37.930Z,86.53
2019-01-31T15:12:07.872Z,86.65
2019-01-31T15:14:38.704Z,86.64
2019-01-31T15:17:08.648Z,86.67
2019-01-31T15:19:38.515Z,86.85
2019-01-31T15:22:08.452Z,86.99
2019-01-31T15:24:38.327Z,87.02
2019-01-31T15:27:08.240Z,86.87
2019-01-31T15:29:38.184Z,86.72
2019-01-31T15:32:08.131Z,86.66
2019-01-31T15:34:38.351Z,86.61
2019-01-31T15:37:08.296Z,86.61
2019-01-31T15:39:38.221Z,86.48
2019-01-31T15:42:08.172Z,86.25
2019-01-31T15:44:43.461Z,86.21
2019-01-31T15:47:09.715Z,86.24
2019-01-31T15:49:39.576Z,86.33
2019-01-31T15:52:09.536Z,86.44
2019-01-31T15:54:39.472Z,86.56
2019-01-31T15:57:16.370Z,86.71
2019-01-31T15:59:41.165Z,86.67
2019-01-31T16:02:10.971Z,86.35
2019-01-31T16:04:40.913Z,86.31
2019-01-31T16:07:10.883Z,86.25
2019-01-31T16:09:40.823Z,86.14
2019-01-31T16:12:10.752Z,86.02
2019-01-31T16:14:41.133Z,85.83
2019-01-31T16:17:11.267Z,85.67
2019-01-31T16:19:41.210Z,85.78
2019-01-31T16:22:11.252Z,85.86
2019-01-31T16:24:41.254Z,85.86
2019-01-31T16:27:11.191Z,86.12
2019-01-31T16:29:41.138Z,86.08
2019-01-31T16:32:13.608Z,86.07
2019-01-31T16:34:42.736Z,86.12
2019-01-31T16:37:12.723Z,86.13
2019-01-31T16:39:42.772Z,86.25
2019-01-31T16:42:12.712Z,86.32
2019-01-31T16:44:42.659Z,86.33
2019-01-31T16:47:12.586Z,86.34
2019-01-31T16:49:42.528Z,86.40
2019-01-31T16:52:12.483Z,86.37
2019-01-31T16:54:42.552Z,86.26
2019-01-31T16:57:12.476Z,86.15
2019-01-31T16:59:43.233Z,86.23
2019-01-31T17:02:13.167Z,86.34
2019-01-31T17:04:43.100Z,86.22
2019-01-31T17:07:13.034Z,86.21
2019-01-31T17:09:43.041Z,86.29
2019-01-31T17:12:13.033Z,86.10
2019-01-31T17:14:43.009Z,85.98
2019-01-31T17:17:12.963Z,86.00
2019-01-31T17:19:43.158Z,85.95
2019-01-31T17:22:13.162Z,85.92
2019-01-31T17:24:43.127Z,85.77
2019-01-31T17:27:13.054Z,85.84
2019-01-31T17:29:45.027Z,85.79
2019-01-31T17:32:14.718Z,85.66
2019-01-31T17:34:44.667Z,85.53
2019-01-31T17:37:14.602Z,85.26
2019-01-31T17:39:44.464Z,85.35
2019-01-31T17:42:14.345Z,85.42
2019-01-31T17:44:44.229Z,85.34
2019-01-31T17:47:14.169Z,85.25
2019-01-31T17:49:44.115Z,85.23
2019-01-31T17:52:14.075Z,85.28
2019-01-31T17:54:43.993Z,85.08
2019-01-31T17:57:13.945Z,84.92
2019-01-31T17:59:43.726Z,84.89
2019-01-31T18:02:13.659Z,84.69
2019-01-31T18:04:43.842Z,84.29
2019-01-31T18:07:13.764Z,84.05
2019-01-31T18:09:43.882Z,84.18
2019-01-31T18:12:13.817Z,84.02
2019-01-31T18:14:43.758Z,83.99
2019-01-31T18:17:13.616Z,84.04
2019-01-31T18:19:43.548Z,84.12
2019-01-31T18:22:13.481Z,84.40
2019-01-31T18:24:43.431Z,84.57
2019-01-31T18:27:13.571Z,84.36
2019-01-31T18:29:43.638Z,84.10
2019-01-31T18:32:13.574Z,84.15
2019-01-31T18:34:43.426Z,84.47
2019-01-31T18:37:13.536Z,84.59
2019-01-31T18:39:43.508Z,84.53
2019-01-31T18:42:14.632Z,84.57
2019-01-31T18:44:44.620Z,84.24
2019-01-31T18:47:14.559Z,84.46
2019-01-31T18:49:44.602Z,84.44
2019-01-31T18:52:15.091Z,84.31
2019-01-31T18:54:45.128Z,84.48
2019-01-31T18:57:15.329Z,84.68
2019-01-31T18:59:45.653Z,84.63
2019-01-31T19:02:15.630Z,84.72
2019-01-31T19:04:45.574Z,84.60
2019-01-31T19:07:15.511Z,84.45
2019-01-31T19:09:45.836Z,84.42
2019-01-31T19:12:15.845Z,84.61
2019-01-31T19:14:45.989Z,84.62
2019-01-31T19:17:17.239Z,84.58
2019-01-31T19:19:47.388Z,84.63
2019-01-31T19:22:17.338Z,84.31
2019-01-31T19:24:47.442Z,84.21
2019-01-31T19:27:17.400Z,83.92
2019-01-31T19:29:47.631Z,83.95
2019-01-31T19:32:17.556Z,84.16
2019-01-31T19:34:47.496Z,83.97
2019-01-31T19:37:17.425Z,83.95
2019-01-31T19:39:47.869Z,83.95
2019-01-31T19:42:17.997Z,84.07
2019-01-31T19:44:47.910Z,83.94
2019-01-31T19:47:18.109Z,84.12
2019-01-31T19:49:49.048Z,84.16
2019-01-31T19:52:19.076Z,84.10
2019-01-31T19:54:49.291Z,84.04
2019-01-31T19:57:19.150Z,84.14
2019-01-31T19:59:49.282Z,84.49
2019-01-31T20:02:20.727Z,84.46
2019-01-31T20:04:50.599Z,84.36
2019-01-31T20:07:21.673Z,84.05
2019-01-31T20:09:51.602Z,83.91
2019-01-31T20:12:21.869Z,83.82
2019-01-31T20:14:51.873Z,83.85
2019-01-31T20:17:21.831Z,83.97
2019-01-31T20:19:52.125Z,83.89
2019-01-31T20:22:22.075Z,83.93
2019-01-31T20:24:52.081Z,84.10
2019-01-31T20:27:22.023Z,84.18
2019-01-31T20:29:52.066Z,84.14
2019-01-31T20:32:22.171Z,84.07
2019-01-31T20:34:52.599Z,84.15
2019-01-31T20:37:22.729Z,84.04
2019-01-31T20:39:52.727Z,83.91
2019-01-31T20:42:22.978Z,83.83
2019-01-31T20:44:53.116Z,83.97
2019-01-31T20:47:23.257Z,84.15
2019-01-31T20:49:53.187Z,84.11
2019-01-31T20:52:23.124Z,83.92
2019-01-31T20:54:53.385Z,83.76
2019-01-31T20:57:23.612Z,83.73
2019-01-31T20:59:54.820Z,83.92
2019-01-31T21:02:24.663Z,84.21
2019-01-31T21:04:54.554Z,84.24
2019-01-31T21:07:24.912Z,84.00
2019-01-31T21:09:55.125Z,83.94
2019-01-31T21:12:25.073Z,83.82
2019-01-31T21:14:54.959Z,83.71
2019-01-31T21:17:25.271Z,83.63
2019-01-31T21:19:55.332Z,83.58
2019-01-31T21:22:25.265Z,83.81
2019-01-31T21:24:55.195Z,83.75
2019-01-31T21:27:25.185Z,83.73
2019-01-31T21:29:55.128Z,83.79
2019-01-31T21:32:25.275Z,83.92
2019-01-31T21:34:55.254Z,84.01
2019-01-31T21:37:25.126Z,83.94
2019-01-31T21:39:55.190Z,84.00
2019-01-31T21:42:25.439Z,84.21
2019-01-31T21:44:55.440Z,84.26
2019-01-31T21:47:25.366Z,84.23
2019-01-31T21:49:55.380Z,84.22
2019-01-31T21:52:25.321Z,84.01
2019-01-31T21:54:56.379Z,83.97
2019-01-31T21:57:26.420Z,84.03
2019-01-31T21:59:56.455Z,83.90
2019-01-31T22:02:26.392Z,83.96
2019-01-31T22:04:56.457Z,83.72
2019-01-31T22:07:26.387Z,83.61
2019-01-31T22:09:56.483Z,83.49
2019-01-31T22:12:26.407Z,83.44
2019-01-31T22:14:56.314Z,83.42
2019-01-31T22:17:26.281Z,83.49
2019-01-31T22:19:56.222Z,83.47
2019-01-31T22:22:26.138Z,83.23
2019-01-31T22:24:58.327Z,83.25
2019-01-31T22:27:28.465Z,83.43
2019-01-31T22:29:58.736Z,83.43
2019-01-31T22:32:28.721Z,83.33
2019-01-31T22:34:58.640Z,82.96
2019-01-31T22:37:28.642Z,82.80
2019-01-31T22:39:58.690Z,83.01
2019-01-31T22:42:28.629Z,83.14
2019-01-31T22:44:59.054Z,83.17
2019-01-31T22:47:28.956Z,83.27
2019-01-31T22:49:58.998Z,83.18
2019-01-31T22:52:28.888Z,83.22
2019-01-31T22:54:58.962Z,83.21
2019-01-31T22:57:28.832Z,83.25
2019-01-31T22:59:59.054Z,83.23
2019-01-31T23:02:28.980Z,83.13
2019-01-31T23:04:58.844Z,83.11
2019-01-31T23:07:28.789Z,82.88
2019-01-31T23:09:58.991Z,82.85
2019-01-31T23:12:29.042Z,82.84
2019-01-31T23:14:59.235Z,82.63
2019-01-31T23:17:37.056Z,82.43
2019-01-31T23:20:00.875Z,82.67
2019-01-31T23:22:30.818Z,82.98
2019-01-31T23:25:00.998Z,83.28
2019-01-31T23:27:30.849Z,83.39
2019-01-31T23:30:01.871Z,83.46
2019-01-31T23:32:34.580Z,83.36
2019-01-31T23:35:05.827Z,83.07
2019-01-31T23:37:35.707Z,82.55
2019-01-31T23:40:07.486Z,82.51
2019-01-31T23:42:37.713Z,82.51
2019-01-31T23:45:10.706Z,82.68
2019-01-31T23:47:48.435Z,82.80
2019-01-31T23:50:12.831Z,82.67
2019-01-31T23:52:42.828Z,82.62
2019-01-31T23:55:12.974Z,82.73
2019-01-31T23:57:42.958Z,82.87
